Decoded Metar for OIGG (RASHT in IRAN) (IATA:RAS) | Meteo·Mobile Aviation Weather
aviador You're here:

OIGG Decoded Metar

RASHT in IRAN
Report Time2018-11-18 09:30:00
UTC Time2018-11-18 09:45:38
Flight Rules vfr VFR
Wind280° at 04 kt
W.Decomp.*RWY 27: 4.0 kt HW 0.4 kt RCW
W.Rank280° ranks 2
Current wind is below 280° avg. (5.8)
Visibility9999 m
Phenomena:N/A
Clouds:Few CB 015 Hf
Scattered 020 Hf
Overcast 080 Hf
Expected CloudBase > 1,200 ft AGL from Temp-Dew spread
Ceiling8,000 ft
Temp15°C (ISA -0)
Dew Point12°C (82% RH)
AAT14.2°C
QNH1023 hPa
Density Alt-203 ft
Elevation-43 ft
Report Wrong Elevation
Raw Report
OIGG 180930Z 28004KT 9999 FEW015CB SCT020 OVC080 15/12 Q1023=

Extra information for OIGG:More info

Metar Taf Metar & Taf Last 4 Metars F.Rules Stats Wind Profile Meteogram Temp Stats Airport Information Weather charts Add Link Nearby VenuesMetar ALERT Operation Metar Decoded Social comments